createdAt,value
2023-02-11T00:01:39.647Z,15.15
2023-02-11T00:04:07.464Z,15.77
2023-02-11T00:06:37.622Z,16.45
2023-02-11T00:09:05.129Z,17.13
2023-02-11T00:11:32.763Z,16.77
2023-02-11T00:14:01.475Z,16.27
2023-02-11T00:16:31.084Z,15.88
2023-02-11T00:18:59.516Z,17.15
2023-02-11T00:21:30.145Z,16.45
2023-02-11T00:23:57.424Z,16.27
2023-02-11T00:26:24.525Z,15.60
2023-02-11T00:28:51.684Z,16.00
2023-02-11T00:31:20.314Z,15.93
2023-02-11T00:33:47.367Z,16.27
2023-02-11T00:36:14.348Z,16.70
2023-02-11T00:38:41.309Z,16.92
2023-02-11T00:41:08.465Z,16.80
2023-02-11T00:43:36.387Z,17.30
2023-02-11T00:46:03.687Z,15.68
2023-02-11T00:48:30.739Z,16.13
2023-02-11T00:50:57.668Z,17.15
2023-02-11T00:53:24.626Z,16.40
2023-02-11T00:55:51.908Z,15.55
2023-02-11T00:58:19.006Z,16.65
2023-02-11T01:00:45.925Z,15.50
2023-02-11T01:03:13.490Z,15.00
2023-02-11T01:05:40.512Z,14.32
2023-02-11T01:08:07.462Z,14.77
2023-02-11T01:10:34.386Z,14.90
2023-02-11T01:13:01.290Z,14.00
2023-02-11T01:15:28.263Z,14.90
2023-02-11T01:17:55.182Z,14.18
2023-02-11T01:20:22.106Z,14.07
2023-02-11T01:22:49.005Z,13.20
2023-02-11T01:25:15.909Z,13.82
2023-02-11T01:27:42.818Z,13.00
2023-02-11T01:30:09.716Z,13.57
2023-02-11T01:32:36.627Z,12.65
2023-02-11T01:35:03.583Z,13.40
2023-02-11T01:37:30.557Z,12.95
2023-02-11T01:39:57.499Z,12.77
2023-02-11T01:42:24.460Z,13.05
2023-02-11T01:44:51.383Z,13.05
2023-02-11T01:47:18.305Z,12.48
2023-02-11T01:49:45.224Z,12.55
2023-02-11T01:52:12.380Z,12.77
2023-02-11T01:54:39.282Z,12.35
2023-02-11T01:57:06.232Z,12.18
2023-02-11T01:59:33.135Z,12.43
2023-02-11T02:02:00.162Z,12.88
2023-02-11T02:04:27.222Z,11.88
2023-02-11T02:06:54.150Z,12.35
2023-02-11T02:09:21.084Z,13.43
2023-02-11T02:11:48.012Z,12.25
2023-02-11T02:14:14.922Z,11.85
2023-02-11T02:16:41.917Z,12.10
2023-02-11T02:19:08.850Z,12.48
2023-02-11T02:21:35.753Z,12.25
2023-02-11T02:24:02.668Z,10.98
2023-02-11T02:26:29.610Z,11.30
2023-02-11T02:28:56.514Z,11.88
2023-02-11T02:31:23.468Z,11.50
2023-02-11T02:33:50.427Z,10.90
2023-02-11T02:36:17.295Z,11.25
2023-02-11T02:38:44.187Z,10.50
2023-02-11T02:41:11.078Z,11.40
2023-02-11T02:43:37.981Z,9.70
2023-02-11T02:46:04.956Z,10.73
2023-02-11T02:48:31.870Z,9.65
2023-02-11T02:50:58.758Z,11.15
2023-02-11T02:53:25.711Z,10.98
2023-02-11T02:55:52.718Z,10.13
2023-02-11T02:58:19.691Z,10.60
2023-02-11T03:00:46.601Z,9.32
2023-02-11T03:03:13.559Z,10.73
2023-02-11T03:05:40.442Z,10.90
2023-02-11T03:08:07.612Z,10.07
2023-02-11T03:10:34.504Z,10.20
2023-02-11T03:13:01.419Z,10.10
2023-02-11T03:15:28.381Z,10.80
2023-02-11T03:17:55.324Z,9.65
2023-02-11T03:20:22.242Z,10.60
2023-02-11T03:22:49.161Z,10.60
2023-02-11T03:25:16.053Z,11.15
2023-02-11T03:27:42.976Z,10.95
2023-02-11T03:30:09.874Z,10.52
2023-02-11T03:32:36.808Z,10.20
2023-02-11T03:35:03.712Z,10.50
2023-02-11T03:37:30.612Z,10.63
2023-02-11T03:39:57.499Z,11.13
2023-02-11T03:42:24.711Z,10.98
2023-02-11T03:44:51.592Z,11.90
2023-02-11T03:47:18.508Z,11.27
2023-02-11T03:49:45.423Z,12.50
2023-02-11T03:52:12.344Z,11.57
2023-02-11T03:54:39.243Z,11.70
2023-02-11T03:57:06.146Z,10.95
2023-02-11T03:59:33.069Z,11.57
2023-02-11T04:01:59.976Z,11.93
2023-02-11T04:04:26.894Z,12.55
2023-02-11T04:06:53.826Z,12.30
2023-02-11T04:09:20.760Z,11.70
2023-02-11T04:11:47.644Z,12.20
2023-02-11T04:14:14.559Z,12.57
2023-02-11T04:16:41.512Z,12.30
2023-02-11T04:19:08.481Z,11.65
2023-02-11T04:21:35.380Z,12.02
2023-02-11T04:24:02.267Z,12.02
2023-02-11T04:26:29.151Z,11.35
2023-02-11T04:28:56.051Z,12.75
2023-02-11T04:31:23.045Z,12.20
2023-02-11T04:33:50.016Z,11.57
2023-02-11T04:36:16.894Z,12.38
2023-02-11T04:38:43.847Z,11.52
2023-02-11T04:41:10.735Z,11.63
2023-02-11T04:43:37.642Z,11.80
2023-02-11T04:46:04.607Z,12.07
2023-02-11T04:48:31.587Z,11.70
2023-02-11T04:50:58.505Z,11.02
2023-02-11T04:53:25.418Z,11.75
2023-02-11T04:55:52.589Z,11.70
2023-02-11T04:58:19.712Z,10.48
2023-02-11T05:00:46.608Z,11.48
2023-02-11T05:03:13.554Z,11.57
2023-02-11T05:05:40.469Z,9.57
2023-02-11T05:08:07.364Z,10.82
2023-02-11T05:10:34.266Z,11.32
2023-02-11T05:13:01.192Z,10.82
2023-02-11T05:15:28.088Z,11.32
2023-02-11T05:17:55.256Z,9.65
2023-02-11T05:20:22.154Z,10.32
2023-02-11T05:22:49.069Z,10.02
2023-02-11T05:25:16.368Z,9.30
2023-02-11T05:27:43.380Z,9.55
2023-02-11T05:30:10.295Z,10.10
2023-02-11T05:32:37.231Z,9.60
2023-02-11T05:35:04.247Z,8.70
2023-02-11T05:37:31.256Z,9.85
2023-02-11T05:39:58.218Z,9.63
2023-02-11T05:42:25.160Z,10.07
2023-02-11T05:44:52.079Z,9.95
2023-02-11T05:47:19.006Z,9.32
2023-02-11T05:49:45.924Z,9.02
2023-02-11T05:52:12.850Z,9.40
2023-02-11T05:54:39.836Z,8.80
2023-02-11T05:57:06.758Z,9.02
2023-02-11T05:59:36.156Z,9.00
2023-02-11T06:02:03.046Z,7.97
2023-02-11T06:04:29.956Z,7.95
2023-02-11T06:06:56.853Z,8.43
2023-02-11T06:09:23.761Z,6.95
2023-02-11T06:11:50.688Z,8.05
2023-02-11T06:14:17.623Z,8.10
2023-02-11T06:16:44.517Z,7.50
2023-02-11T06:19:11.442Z,7.40
2023-02-11T06:21:43.909Z,7.47
2023-02-11T06:24:11.265Z,7.30
2023-02-11T06:26:38.154Z,6.53
2023-02-11T06:29:05.103Z,6.70
2023-02-11T06:31:32.091Z,7.55
2023-02-11T06:33:59.062Z,6.88
2023-02-11T06:36:25.975Z,7.82
2023-02-11T06:38:52.883Z,7.32
2023-02-11T06:41:19.786Z,7.40
2023-02-11T06:43:46.677Z,7.07
2023-02-11T06:46:13.600Z,7.10
2023-02-11T06:48:42.068Z,7.05
2023-02-11T06:51:10.017Z,7.32
2023-02-11T06:53:36.953Z,6.85
2023-02-11T06:56:03.860Z,6.90
2023-02-11T06:58:30.794Z,7.30
2023-02-11T07:00:58.887Z,6.93
2023-02-11T07:03:25.802Z,7.35
2023-02-11T07:05:52.974Z,6.68
2023-02-11T07:08:20.087Z,7.63
2023-02-11T07:10:47.004Z,6.80
2023-02-11T07:13:13.927Z,6.38
2023-02-11T07:15:40.854Z,7.38
2023-02-11T07:18:07.832Z,6.93
2023-02-11T07:20:34.742Z,6.40
2023-02-11T07:23:01.643Z,6.68
2023-02-11T07:25:28.555Z,5.93
2023-02-11T07:27:55.498Z,6.43
2023-02-11T07:30:22.465Z,6.45
2023-02-11T07:32:49.354Z,6.40
2023-02-11T07:35:16.258Z,6.38
2023-02-11T07:37:43.166Z,5.93
2023-02-11T07:40:10.091Z,6.68
2023-02-11T07:42:37.027Z,6.30
2023-02-11T07:45:03.940Z,5.65
2023-02-11T07:47:30.832Z,6.65
2023-02-11T07:49:57.748Z,5.97
2023-02-11T07:52:24.665Z,6.43
2023-02-11T07:54:51.570Z,6.10
2023-02-11T07:57:18.458Z,6.60
2023-02-11T07:59:45.391Z,6.63
2023-02-11T08:02:12.364Z,6.93
2023-02-11T08:04:39.297Z,5.95
2023-02-11T08:07:06.218Z,6.38
2023-02-11T08:09:34.578Z,6.38
2023-02-11T08:12:01.589Z,6.68
2023-02-11T08:14:28.537Z,6.82
2023-02-11T08:16:55.575Z,6.40
2023-02-11T08:19:22.596Z,6.57
2023-02-11T08:21:49.596Z,6.07
2023-02-11T08:24:16.575Z,6.18
2023-02-11T08:26:43.501Z,5.72
2023-02-11T08:29:10.451Z,6.28
2023-02-11T08:31:37.433Z,5.60
2023-02-11T08:34:04.397Z,5.47
2023-02-11T08:36:31.351Z,5.95
2023-02-11T08:39:12.153Z,5.60
2023-02-11T08:41:44.804Z,5.30
2023-02-11T08:44:11.755Z,5.10
2023-02-11T08:46:38.653Z,5.45
2023-02-11T08:49:05.557Z,5.72
2023-02-11T08:51:32.444Z,5.55
2023-02-11T08:53:59.377Z,5.78
2023-02-11T08:56:26.287Z,5.53
2023-02-11T08:58:53.214Z,5.25
2023-02-11T09:01:22.642Z,5.25
2023-02-11T09:03:50.137Z,5.38
2023-02-11T09:06:17.044Z,5.65
2023-02-11T09:08:46.325Z,5.55
2023-02-11T09:11:13.375Z,5.97
2023-02-11T09:13:40.374Z,6.03
2023-02-11T09:16:07.301Z,6.10
2023-02-11T09:18:34.253Z,6.50
2023-02-11T09:21:01.180Z,4.68
2023-02-11T09:23:28.102Z,6.03
2023-02-11T09:25:55.017Z,5.22
2023-02-11T09:28:21.962Z,4.82
2023-02-11T09:30:49.065Z,5.35
2023-02-11T09:33:16.206Z,4.90
2023-02-11T09:35:43.192Z,4.78
2023-02-11T09:41:00.053Z,5.22
2023-02-11T09:43:26.968Z,5.15
2023-02-11T09:45:53.917Z,5.13
2023-02-11T09:48:20.862Z,5.45
2023-02-11T09:50:47.830Z,6.93
2023-02-11T09:53:14.745Z,5.68
2023-02-11T09:55:41.662Z,5.43
2023-02-11T09:58:08.574Z,5.20
2023-02-11T10:00:35.515Z,5.28
2023-02-11T10:03:02.443Z,6.20
2023-02-11T10:05:29.490Z,5.32
2023-02-11T10:07:56.395Z,4.88
2023-02-11T10:10:23.312Z,5.60
2023-02-11T10:12:50.223Z,5.32
2023-02-11T10:15:17.253Z,4.70
2023-02-11T10:17:44.163Z,5.28
2023-02-11T10:20:11.172Z,5.70
2023-02-11T10:22:38.068Z,4.90
2023-02-11T10:25:04.987Z,4.93
2023-02-11T10:27:31.890Z,4.82
2023-02-11T10:29:58.864Z,4.95
2023-02-11T10:32:25.811Z,4.63
2023-02-11T10:34:52.733Z,4.65
2023-02-11T10:37:19.673Z,4.53
2023-02-11T10:39:46.641Z,4.80
2023-02-11T10:42:13.616Z,4.30
2023-02-11T10:44:40.554Z,4.13
2023-02-11T10:47:07.541Z,4.72
2023-02-11T10:49:34.467Z,4.20
2023-02-11T10:52:01.398Z,4.28
2023-02-11T10:54:28.331Z,4.50
2023-02-11T10:56:55.240Z,4.40
2023-02-11T10:59:22.440Z,3.70
2023-02-11T11:01:49.475Z,4.07
2023-02-11T11:04:16.438Z,4.35
2023-02-11T11:06:43.405Z,3.75
2023-02-11T11:09:10.360Z,3.63
2023-02-11T11:11:37.290Z,3.83
2023-02-11T11:14:04.239Z,3.67
2023-02-11T11:16:31.184Z,3.60
2023-02-11T11:18:58.123Z,3.40
2023-02-11T11:21:25.077Z,4.45
2023-02-11T11:23:51.978Z,3.45
2023-02-11T11:26:18.970Z,3.53
2023-02-11T11:28:45.931Z,3.72
2023-02-11T11:31:12.865Z,4.25
2023-02-11T11:33:39.859Z,3.60
2023-02-11T11:36:06.776Z,4.03
2023-02-11T11:38:33.684Z,3.47
2023-02-11T11:41:00.620Z,3.78
2023-02-11T11:43:27.571Z,3.60
2023-02-11T11:45:54.485Z,3.30
2023-02-11T11:48:21.430Z,3.00
2023-02-11T11:50:48.660Z,3.10
2023-02-11T11:53:15.748Z,3.58
2023-02-11T11:55:42.670Z,3.63
2023-02-11T11:58:09.573Z,3.33
2023-02-11T12:00:36.552Z,3.30
2023-02-11T12:03:03.473Z,3.50
2023-02-11T12:05:30.410Z,3.65
2023-02-11T12:07:57.317Z,3.40
2023-02-11T12:10:24.231Z,3.33
2023-02-11T12:12:51.145Z,3.55
2023-02-11T12:15:18.386Z,4.65
2023-02-11T12:17:45.318Z,3.65
2023-02-11T12:20:12.240Z,3.70
2023-02-11T12:22:39.149Z,3.08
2023-02-11T12:25:06.087Z,3.22
2023-02-11T12:27:33.001Z,3.75
2023-02-11T12:29:59.982Z,3.60
2023-02-11T12:32:26.875Z,3.47
2023-02-11T12:34:53.778Z,3.00
2023-02-11T12:37:20.691Z,2.97
2023-02-11T12:39:47.616Z,2.92
2023-02-11T12:42:14.587Z,3.08
2023-02-11T12:44:41.503Z,3.13
2023-02-11T12:47:08.451Z,3.13
2023-02-11T12:49:35.388Z,3.80
2023-02-11T12:52:02.315Z,3.83
2023-02-11T12:54:29.258Z,3.55
2023-02-11T12:56:56.206Z,3.28
2023-02-11T12:59:23.187Z,3.53
2023-02-11T13:01:50.144Z,3.28
2023-02-11T13:04:17.095Z,3.22
2023-02-11T13:06:44.088Z,3.60
2023-02-11T13:09:11.059Z,3.70
2023-02-11T13:11:37.964Z,5.78
2023-02-11T13:14:06.542Z,8.50
2023-02-11T13:28:01.471Z,3.10
2023-02-11T13:30:31.012Z,3.50
2023-02-11T13:33:08.487Z,3.33
2023-02-11T13:41:18.498Z,3.28
2023-02-11T13:43:45.512Z,3.10
2023-02-11T13:46:12.518Z,2.92
2023-02-11T13:48:39.445Z,3.60
2023-02-11T13:51:11.130Z,3.00
2023-02-11T13:53:39.604Z,2.78
2023-02-11T13:56:19.831Z,3.30
2023-02-11T13:58:46.844Z,2.83
2023-02-11T14:01:13.835Z,3.25
2023-02-11T14:03:40.777Z,2.83
2023-02-11T14:06:07.738Z,2.78
2023-02-11T14:13:56.404Z,2.63
2023-02-11T14:16:37.091Z,3.10
2023-02-11T14:19:11.678Z,3.20
2023-02-11T14:21:44.418Z,2.75
2023-02-11T14:24:20.381Z,2.42
2023-02-11T14:26:51.895Z,2.50
2023-02-11T14:29:18.953Z,2.47
2023-02-11T14:31:45.928Z,2.55
2023-02-11T14:34:12.927Z,2.97
2023-02-11T14:36:39.837Z,2.45
2023-02-11T14:39:06.769Z,2.67
2023-02-11T14:41:34.046Z,2.58
2023-02-11T14:44:00.949Z,2.85
2023-02-11T14:46:28.001Z,3.10
2023-02-11T14:48:54.944Z,3.00
2023-02-11T14:51:21.853Z,2.80
2023-02-11T14:53:48.750Z,2.70
2023-02-11T14:56:15.718Z,2.30
2023-02-11T14:58:42.634Z,2.78
2023-02-11T15:01:09.562Z,2.50
2023-02-11T15:03:36.495Z,2.92
2023-02-11T15:06:03.411Z,2.50
2023-02-11T15:08:30.437Z,2.75
2023-02-11T15:10:57.424Z,2.60
2023-02-11T15:13:24.354Z,2.70
2023-02-11T15:15:51.287Z,2.40
2023-02-11T15:18:18.293Z,2.53
2023-02-11T15:23:32.336Z,2.20
2023-02-11T15:25:59.271Z,2.63
2023-02-11T15:28:26.275Z,2.00
2023-02-11T15:30:53.725Z,2.30
2023-02-11T15:33:20.836Z,2.30
2023-02-11T15:35:47.865Z,2.03
2023-02-11T15:38:14.810Z,2.33
2023-02-11T15:40:41.787Z,2.13
2023-02-11T15:43:08.706Z,2.25
2023-02-11T15:45:35.609Z,2.35
2023-02-11T15:48:02.545Z,2.60
2023-02-11T15:50:29.506Z,2.25
2023-02-11T15:52:56.455Z,2.08
2023-02-11T15:55:24.450Z,2.40
2023-02-11T15:57:51.366Z,2.20
2023-02-11T16:00:18.323Z,2.40
2023-02-11T16:02:45.297Z,2.33
2023-02-11T16:05:12.246Z,2.70
2023-02-11T16:07:39.196Z,3.03
2023-02-11T16:10:06.143Z,2.97
2023-02-11T16:12:33.087Z,3.40
2023-02-11T16:14:59.997Z,3.53
2023-02-11T16:17:26.890Z,3.45
2023-02-11T16:19:53.865Z,3.50
2023-02-11T16:22:20.761Z,3.88
2023-02-11T16:24:47.648Z,3.63
2023-02-11T16:27:14.905Z,3.80
2023-02-11T16:29:41.885Z,3.33
2023-02-11T16:32:08.889Z,3.30
2023-02-11T16:34:35.854Z,3.63
2023-02-11T16:37:02.800Z,2.85
2023-02-11T16:39:30.796Z,3.15
2023-02-11T16:41:57.706Z,3.38
2023-02-11T16:44:24.606Z,3.15
2023-02-11T16:46:51.567Z,3.17
2023-02-11T16:49:18.498Z,3.10
2023-02-11T16:51:45.401Z,3.58
2023-02-11T16:54:12.317Z,3.78
2023-02-11T16:56:39.294Z,4.13
2023-02-11T16:59:06.270Z,3.53
2023-02-11T17:01:33.190Z,3.72
2023-02-11T17:04:00.169Z,4.20
2023-02-11T17:06:27.157Z,4.00
2023-02-11T17:08:54.070Z,4.22
2023-02-11T17:11:20.976Z,4.45
2023-02-11T17:13:47.879Z,4.10
2023-02-11T17:16:15.844Z,4.18
2023-02-11T17:18:42.815Z,4.68
2023-02-11T17:21:10.765Z,3.58
2023-02-11T17:23:37.716Z,3.78
2023-02-11T17:26:05.304Z,4.05
2023-02-11T17:28:32.474Z,4.38
2023-02-11T17:31:02.120Z,3.50
2023-02-11T17:33:29.277Z,3.35
2023-02-11T17:35:56.251Z,3.67
2023-02-11T17:38:23.171Z,3.35
2023-02-11T17:40:50.060Z,3.92
2023-02-11T17:43:16.986Z,3.60
2023-02-11T17:45:43.972Z,3.17
2023-02-11T17:48:10.893Z,3.47
2023-02-11T17:50:37.958Z,4.03
2023-02-11T17:53:04.880Z,4.00
2023-02-11T17:55:31.798Z,4.43
2023-02-11T17:57:58.718Z,4.97
2023-02-11T18:00:25.604Z,4.80
2023-02-11T18:02:52.562Z,4.95
2023-02-11T18:05:19.539Z,4.38
2023-02-11T18:07:46.457Z,3.88
2023-02-11T18:10:13.486Z,4.15
2023-02-11T18:12:40.673Z,4.07
2023-02-11T18:15:07.611Z,4.97
2023-02-11T18:17:34.516Z,5.70
2023-02-11T18:20:01.446Z,5.18
2023-02-11T18:22:28.383Z,5.25
2023-02-11T18:24:57.500Z,4.65
2023-02-11T18:27:24.534Z,4.40
2023-02-11T18:29:51.459Z,5.10
2023-02-11T18:32:18.387Z,4.80
2023-02-11T18:34:45.391Z,5.07
2023-02-11T18:37:12.302Z,4.57
2023-02-11T18:39:39.211Z,4.07
2023-02-11T18:42:06.195Z,4.72
2023-02-11T18:44:33.105Z,3.88
2023-02-11T18:47:00.040Z,4.28
2023-02-11T18:49:26.986Z,4.45
2023-02-11T18:51:53.906Z,4.40
2023-02-11T18:54:20.846Z,4.30
2023-02-11T18:56:47.774Z,4.95
2023-02-11T18:59:14.696Z,4.60
2023-02-11T19:01:41.664Z,4.25
2023-02-11T19:04:08.654Z,3.92
2023-02-11T19:06:38.187Z,3.90
2023-02-11T19:09:05.115Z,4.13
2023-02-11T19:11:32.065Z,4.03
2023-02-11T19:13:59.003Z,3.30
2023-02-11T19:16:25.946Z,3.35
2023-02-11T19:18:52.906Z,3.70
2023-02-11T19:21:19.871Z,3.50
2023-02-11T19:23:47.180Z,3.80
2023-02-11T19:29:10.873Z,3.53
2023-02-11T20:25:52.511Z,4.65
2023-02-11T20:28:19.946Z,4.40
2023-02-11T20:30:46.995Z,5.05
2023-02-11T20:33:14.045Z,5.20
2023-02-11T20:35:40.964Z,5.63
2023-02-11T20:38:07.915Z,4.80
2023-02-11T20:40:34.896Z,5.07
2023-02-11T20:43:01.909Z,4.82
2023-02-11T20:45:29.003Z,5.63
2023-02-11T20:47:57.126Z,5.47
2023-02-11T20:50:24.045Z,6.70
2023-02-11T20:52:51.097Z,6.43
2023-02-11T20:55:18.021Z,6.78
2023-02-11T20:57:44.953Z,6.70
2023-02-11T21:00:11.913Z,7.45
2023-02-11T21:02:40.228Z,8.23
2023-02-11T21:05:07.233Z,7.38
2023-02-11T21:07:34.184Z,7.68
2023-02-11T21:10:01.125Z,7.78
2023-02-11T21:12:28.526Z,7.82
2023-02-11T21:14:56.716Z,7.90
2023-02-11T21:17:26.461Z,7.35
2023-02-11T21:19:54.000Z,6.80
2023-02-11T21:22:20.908Z,7.18
2023-02-11T21:24:47.839Z,7.13
2023-02-11T21:27:14.762Z,6.95
2023-02-11T21:29:53.358Z,6.97
2023-02-11T21:32:20.902Z,6.78
2023-02-11T21:34:49.213Z,6.57
2023-02-11T21:37:16.118Z,5.82
2023-02-11T21:39:43.908Z,4.97
2023-02-11T21:42:10.815Z,5.18
2023-02-11T21:44:37.916Z,5.22
2023-02-11T21:47:05.061Z,5.20
2023-02-11T21:49:32.356Z,4.90
2023-02-11T21:51:59.267Z,5.68
2023-02-11T21:54:27.365Z,6.70
2023-02-11T21:56:54.422Z,7.68
2023-02-11T21:59:21.731Z,6.95
2023-02-11T22:01:49.374Z,8.32
2023-02-11T22:04:16.360Z,9.15
2023-02-11T22:06:43.430Z,9.75
2023-02-11T22:09:10.341Z,10.15
2023-02-11T22:11:37.236Z,10.60
2023-02-11T22:14:04.170Z,10.57
2023-02-11T22:16:31.142Z,10.85
2023-02-11T22:18:58.183Z,10.20
2023-02-11T22:21:25.112Z,10.25
2023-02-11T22:23:52.120Z,9.65
2023-02-11T22:26:19.024Z,9.35
2023-02-11T22:28:46.829Z,9.77
2023-02-11T22:31:13.905Z,9.48
2023-02-11T22:33:41.841Z,10.25
2023-02-11T22:36:09.282Z,10.43
2023-02-11T22:38:36.272Z,9.75
2023-02-11T22:41:03.242Z,10.38
2023-02-11T22:43:30.206Z,10.43
2023-02-11T22:45:57.459Z,10.68
2023-02-11T22:54:14.252Z,10.38
2023-02-11T22:56:41.222Z,10.50
2023-02-11T22:59:08.233Z,10.05
2023-02-11T23:12:52.665Z,9.77
